createdAt,value
2019-06-07T00:01:58.040Z,5.30
2019-06-07T00:04:28.217Z,4.97
2019-06-07T00:06:58.274Z,5.13
2019-06-07T00:09:28.292Z,5.30
2019-06-07T00:11:58.544Z,5.20
2019-06-07T00:14:28.658Z,5.10
2019-06-07T00:16:58.620Z,5.80
2019-06-07T00:19:28.638Z,5.63
2019-06-07T00:22:29.126Z,5.20
2019-06-07T00:24:30.650Z,4.70
2019-06-07T00:27:00.654Z,4.80
2019-06-07T00:29:30.745Z,4.53
2019-06-07T00:32:00.769Z,4.70
2019-06-07T00:34:30.856Z,5.30
2019-06-07T00:37:00.973Z,6.13
2019-06-07T00:39:30.995Z,5.13
2019-06-07T00:42:01.228Z,5.20
2019-06-07T00:44:31.261Z,4.53
2019-06-07T00:47:01.379Z,4.70
2019-06-07T00:49:40.502Z,4.90
2019-06-07T00:52:03.221Z,4.77
2019-06-07T00:54:33.397Z,5.20
2019-06-07T00:57:03.503Z,5.57
2019-06-07T00:59:33.697Z,5.20
2019-06-07T01:02:05.536Z,5.90
2019-06-07T01:04:35.739Z,5.40
2019-06-07T01:07:05.889Z,5.87
2019-06-07T01:09:35.983Z,4.80
2019-06-07T01:12:06.276Z,5.03
2019-06-07T01:14:36.899Z,5.23
2019-06-07T01:17:43.557Z,5.47
2019-06-07T01:20:07.055Z,5.33
2019-06-07T01:22:37.220Z,5.67
2019-06-07T01:25:08.140Z,5.40
2019-06-07T01:27:38.285Z,5.97
2019-06-07T01:30:11.130Z,5.57
2019-06-07T01:32:41.299Z,5.73
2019-06-07T01:35:12.041Z,5.47
2019-06-07T01:37:42.212Z,5.53
2019-06-07T01:40:13.230Z,5.27
2019-06-07T01:42:43.419Z,5.80
2019-06-07T01:45:18.031Z,5.50
2019-06-07T01:47:47.621Z,4.80
2019-06-07T01:50:21.660Z,4.73
2019-06-07T01:52:49.531Z,4.97
2019-06-07T01:55:23.680Z,5.20
2019-06-07T01:57:52.446Z,4.93
2019-06-07T02:00:24.094Z,4.67
2019-06-07T02:02:54.581Z,4.73
2019-06-07T02:05:26.656Z,5.20
2019-06-07T02:07:56.564Z,5.20
2019-06-07T02:10:29.985Z,4.93
2019-06-07T02:12:58.566Z,4.80
2019-06-07T02:15:36.104Z,4.53
2019-06-07T02:18:00.651Z,5.33
2019-06-07T02:20:34.244Z,4.67
2019-06-07T02:23:02.610Z,5.07
2019-06-07T02:25:45.422Z,4.73
2019-06-07T02:28:26.753Z,4.80
2019-06-07T02:30:46.125Z,5.80
2019-06-07T02:33:08.181Z,5.27
2019-06-07T02:35:40.464Z,5.77
2019-06-07T02:38:10.009Z,5.40
2019-06-07T02:40:40.183Z,5.13
2019-06-07T02:43:10.321Z,4.93
2019-06-07T02:45:43.306Z,5.73
2019-06-07T02:48:12.209Z,5.73
2019-06-07T02:50:42.324Z,5.90
2019-06-07T02:53:12.476Z,5.53
2019-06-07T02:56:33.258Z,4.93
2019-06-07T02:58:14.600Z,5.20
2019-06-07T03:01:06.843Z,4.80
2019-06-07T03:03:19.818Z,5.07
2019-06-07T03:05:49.984Z,5.23
2019-06-07T03:08:20.155Z,5.63
2019-06-07T03:10:51.308Z,5.70
2019-06-07T03:13:23.414Z,5.23
2019-06-07T03:15:55.460Z,5.73
2019-06-07T03:18:57.132Z,5.23
2019-06-07T03:21:29.500Z,5.57
2019-06-07T03:24:00.180Z,5.47
2019-06-07T03:26:34.843Z,5.40
2019-06-07T03:29:02.661Z,4.97
2019-06-07T03:31:41.525Z,5.87
2019-06-07T03:34:04.774Z,5.57
2019-06-07T03:36:38.842Z,5.87
2019-06-07T03:39:08.426Z,5.60
2019-06-07T03:41:49.872Z,41.40
2019-06-07T03:44:10.447Z,6.73
2019-06-07T03:46:41.676Z,6.30
2019-06-07T03:49:11.859Z,5.97
2019-06-07T03:51:42.017Z,5.13
2019-06-07T03:54:12.024Z,5.57
2019-06-07T03:56:42.052Z,4.93
2019-06-07T03:59:12.069Z,6.20
2019-06-07T04:01:42.202Z,5.03
2019-06-07T04:04:12.306Z,5.23
2019-06-07T04:06:42.844Z,5.50
2019-06-07T04:09:13.055Z,5.20
2019-06-07T04:11:43.064Z,5.37
2019-06-07T04:14:13.158Z,5.03
2019-06-07T04:16:44.780Z,5.73
2019-06-07T04:19:15.123Z,5.63
2019-06-07T04:21:45.209Z,5.90
2019-06-07T04:24:15.375Z,6.13
2019-06-07T04:26:46.853Z,6.17
2019-06-07T04:29:41.393Z,6.13
2019-06-07T04:31:48.848Z,6.60
2019-06-07T04:34:18.917Z,6.33
2019-06-07T04:36:58.354Z,6.60
2019-06-07T04:39:24.731Z,6.70
2019-06-07T04:41:57.449Z,6.43
2019-06-07T04:44:28.879Z,5.90
2019-06-07T04:47:02.198Z,6.50
2019-06-07T04:49:37.401Z,6.50
2019-06-07T04:52:06.782Z,6.43
2019-06-07T04:54:38.565Z,6.53
2019-06-07T04:57:08.845Z,5.57
2019-06-07T05:00:11.179Z,5.93
2019-06-07T05:02:10.752Z,6.42
2019-06-07T05:04:42.392Z,6.10
2019-06-07T05:07:12.719Z,6.37
2019-06-07T05:09:43.409Z,6.70
2019-06-07T05:12:13.697Z,6.57
2019-06-07T05:14:44.349Z,6.13
2019-06-07T05:17:14.533Z,6.00
2019-06-07T05:19:44.889Z,6.10
2019-06-07T05:22:15.069Z,7.10
2019-06-07T05:24:45.019Z,5.97
2019-06-07T05:27:15.191Z,6.43
2019-06-07T05:30:06.440Z,6.70
2019-06-07T05:32:17.244Z,6.07
2019-06-07T05:34:47.681Z,6.40
2019-06-07T05:37:17.752Z,6.60
2019-06-07T05:39:47.744Z,6.53
2019-06-07T05:42:17.954Z,7.23
2019-06-07T05:44:48.090Z,6.60
2019-06-07T05:47:18.189Z,6.90
2019-06-07T05:49:48.296Z,6.63
2019-06-07T05:52:18.465Z,6.90
2019-06-07T05:54:48.559Z,6.10
2019-06-07T05:57:18.636Z,6.17
2019-06-07T05:59:48.684Z,6.07
2019-06-07T06:02:23.232Z,6.27
2019-06-07T06:04:50.858Z,6.60
2019-06-07T06:07:21.061Z,6.50
2019-06-07T06:09:51.281Z,7.13
2019-06-07T06:12:34.892Z,6.83
2019-06-07T06:14:53.266Z,6.50
2019-06-07T06:17:23.374Z,6.57
2019-06-07T06:19:53.672Z,6.97
2019-06-07T06:22:23.702Z,6.83
2019-06-07T06:25:29.878Z,6.70
2019-06-07T06:28:03.148Z,6.47
2019-06-07T06:29:57.463Z,6.63
2019-06-07T06:32:41.983Z,6.60
2019-06-07T06:34:59.360Z,6.33
2019-06-07T06:37:29.357Z,5.87
2019-06-07T06:39:59.477Z,6.60
2019-06-07T06:42:29.709Z,6.23
2019-06-07T06:44:59.989Z,5.77
2019-06-07T06:47:30.106Z,5.73
2019-06-07T06:50:01.928Z,5.70
2019-06-07T06:52:32.114Z,6.13
2019-06-07T06:55:02.369Z,5.80
2019-06-07T06:57:32.486Z,6.73
2019-06-07T07:00:02.685Z,5.97
2019-06-07T07:02:32.834Z,7.07
2019-06-07T07:05:03.149Z,6.03
2019-06-07T07:07:33.844Z,6.73
2019-06-07T07:10:05.424Z,7.00
2019-06-07T07:12:35.543Z,6.83
2019-06-07T07:15:07.005Z,6.97
2019-06-07T07:17:50.876Z,7.30
2019-06-07T07:20:09.144Z,7.15
2019-06-07T07:22:39.282Z,7.43
2019-06-07T07:25:09.646Z,7.80
2019-06-07T07:27:39.782Z,7.20
2019-06-07T07:30:35.973Z,7.30
2019-06-07T07:32:45.590Z,8.00
2019-06-07T07:35:14.514Z,8.27
2019-06-07T07:37:46.259Z,8.50
2019-06-07T07:42:50.514Z,8.18
2019-06-07T07:45:20.315Z,8.70
2019-06-07T07:48:10.998Z,8.83
2019-06-07T07:50:22.106Z,9.60
2019-06-07T07:52:56.025Z,9.47
2019-06-07T07:55:24.311Z,9.50
2019-06-07T07:58:01.086Z,9.90
2019-06-07T08:03:04.284Z,10.07
2019-06-07T08:05:42.495Z,9.50
2019-06-07T08:08:07.545Z,9.50
2019-06-07T08:10:36.596Z,8.90
2019-06-07T08:13:23.473Z,8.90
2019-06-07T08:15:38.719Z,8.13
2019-06-07T08:18:08.916Z,8.37
2019-06-07T08:20:39.082Z,8.63
2019-06-07T08:23:09.307Z,7.92
2019-06-07T08:25:39.508Z,7.72
2019-06-07T08:28:09.725Z,8.87
2019-06-07T08:30:51.244Z,8.18
2019-06-07T08:33:25.426Z,8.10
2019-06-07T08:36:06.167Z,7.77
2019-06-07T08:38:26.907Z,7.85
2019-06-07T08:40:47.307Z,8.23
2019-06-07T08:43:21.090Z,7.70
2019-06-07T08:45:55.916Z,8.10
2019-06-07T08:48:28.042Z,8.18
2019-06-07T08:51:00.714Z,8.07
2019-06-07T08:53:26.771Z,7.40
2019-06-07T08:56:04.440Z,7.17
2019-06-07T08:58:28.828Z,7.60
2019-06-07T09:01:05.818Z,8.80
2019-06-07T09:03:30.606Z,7.50
2019-06-07T09:06:16.313Z,7.72
2019-06-07T09:08:32.687Z,7.25
2019-06-07T09:11:10.237Z,7.83
2019-06-07T09:13:34.823Z,7.92
2019-06-07T09:16:08.644Z,7.62
2019-06-07T09:18:43.871Z,7.28
2019-06-07T09:21:09.719Z,7.40
2019-06-07T09:23:40.309Z,6.72
2019-06-07T09:26:18.307Z,6.58
2019-06-07T09:28:42.802Z,6.53
2019-06-07T09:31:13.191Z,7.70
2019-06-07T09:33:43.261Z,7.47
2019-06-07T09:36:13.793Z,7.08
2019-06-07T09:38:45.322Z,6.33
2019-06-07T09:41:15.498Z,6.05
2019-06-07T09:44:14.325Z,6.40
2019-06-07T09:46:17.564Z,6.92
2019-06-07T09:49:12.280Z,6.67
2019-06-07T09:51:20.665Z,6.00
2019-06-07T09:53:50.972Z,6.08
2019-06-07T09:56:21.202Z,6.95
2019-06-07T09:58:53.625Z,6.42
2019-06-07T10:01:23.193Z,5.97
2019-06-07T10:03:53.313Z,5.55
2019-06-07T10:06:23.532Z,5.65
2019-06-07T10:11:25.543Z,6.20
2019-06-07T10:13:55.924Z,5.85
2019-06-07T10:16:25.974Z,6.62
2019-06-07T10:18:56.078Z,7.40
2019-06-07T10:21:26.182Z,6.95
2019-06-07T10:23:56.404Z,6.97
2019-06-07T10:26:26.554Z,7.50
2019-06-07T10:28:56.707Z,6.97
2019-06-07T10:31:26.888Z,6.85
2019-06-07T10:33:57.070Z,6.12
2019-06-07T10:36:27.250Z,6.15
2019-06-07T10:38:57.475Z,5.83
2019-06-07T10:41:27.559Z,6.20
2019-06-07T10:43:57.706Z,6.60
2019-06-07T10:46:27.814Z,6.35
2019-06-07T10:48:58.011Z,5.28
2019-06-07T10:51:28.184Z,5.55
2019-06-07T10:53:58.276Z,6.70
2019-06-07T10:56:28.363Z,5.20
2019-06-07T10:58:58.761Z,5.53
2019-06-07T11:01:28.952Z,5.40
2019-06-07T11:03:59.035Z,4.65
2019-06-07T11:06:29.224Z,4.72
2019-06-07T11:08:59.409Z,5.17
2019-06-07T11:11:29.490Z,4.00
2019-06-07T11:13:59.513Z,4.37
2019-06-07T11:16:30.047Z,4.75
2019-06-07T11:19:00.198Z,4.20
2019-06-07T11:21:30.342Z,3.87
2019-06-07T11:24:00.393Z,4.05
2019-06-07T11:26:30.503Z,4.47
2019-06-07T11:29:00.634Z,4.47
2019-06-07T11:31:30.860Z,5.28
2019-06-07T11:34:00.974Z,5.08
2019-06-07T11:36:31.254Z,4.17
2019-06-07T11:39:01.209Z,3.75
2019-06-07T11:41:31.454Z,3.40
2019-06-07T11:44:01.686Z,3.35
2019-06-07T11:46:31.987Z,3.30
2019-06-07T11:49:02.177Z,3.72
2019-06-07T11:51:32.409Z,3.92
2019-06-07T11:54:02.853Z,3.92
2019-06-07T11:56:32.876Z,4.22
2019-06-07T11:59:03.197Z,5.10
2019-06-07T12:01:33.350Z,4.87
2019-06-07T12:04:03.525Z,3.77
2019-06-07T12:06:33.794Z,4.00
2019-06-07T12:09:04.927Z,3.67
2019-06-07T12:11:35.197Z,3.72
2019-06-07T12:14:05.528Z,3.12
2019-06-07T12:16:35.852Z,2.67
2019-06-07T12:19:06.031Z,2.77
2019-06-07T12:21:36.171Z,3.12
2019-06-07T12:24:06.528Z,2.70
2019-06-07T12:26:36.739Z,3.30
2019-06-07T12:29:07.136Z,2.77
2019-06-07T12:31:37.394Z,3.00
2019-06-07T12:34:07.497Z,3.05
2019-06-07T12:36:37.751Z,3.45
2019-06-07T12:39:08.848Z,3.30
2019-06-07T12:41:39.192Z,3.12
2019-06-07T12:44:09.472Z,3.55
2019-06-07T12:46:39.751Z,2.75
2019-06-07T12:49:10.015Z,3.10
2019-06-07T12:51:40.346Z,2.67
2019-06-07T12:54:10.618Z,2.85
2019-06-07T12:56:40.935Z,3.40
2019-06-07T12:59:11.251Z,2.58
2019-06-07T13:01:41.532Z,2.83
2019-06-07T13:04:11.784Z,2.58
2019-06-07T13:06:42.196Z,3.02
2019-06-07T13:09:12.484Z,2.95
2019-06-07T13:11:42.793Z,2.57
2019-06-07T13:14:13.030Z,2.50
2019-06-07T13:16:43.290Z,2.22
2019-06-07T13:19:13.557Z,2.55
2019-06-07T13:21:43.862Z,1.92
2019-06-07T13:24:14.077Z,2.65
2019-06-07T13:26:44.333Z,2.62
2019-06-07T13:29:14.610Z,2.75
2019-06-07T13:31:44.959Z,2.62
2019-06-07T13:34:16.108Z,2.40
2019-06-07T13:36:46.338Z,2.12
2019-06-07T13:39:17.116Z,2.60
2019-06-07T13:41:47.671Z,2.37
2019-06-07T13:44:18.674Z,2.40
2019-06-07T13:46:49.166Z,2.45
2019-06-07T13:49:19.554Z,2.55
2019-06-07T13:51:49.802Z,2.30
2019-06-07T13:58:09.376Z,2.12
2019-06-07T14:01:18.313Z,2.27
2019-06-07T14:03:48.846Z,2.20
2019-06-07T14:06:19.222Z,1.82
2019-06-07T14:08:49.488Z,2.00
2019-06-07T14:11:21.430Z,1.50
2019-06-07T14:13:51.757Z,1.65
2019-06-07T14:16:22.142Z,1.90
2019-06-07T14:18:52.416Z,1.50
2019-06-07T14:21:22.718Z,1.42
2019-06-07T14:23:52.936Z,1.70
2019-06-07T14:26:23.247Z,1.70
2019-06-07T14:28:53.469Z,7.40
2019-06-07T14:31:24.597Z,4.78
2019-06-07T14:33:55.157Z,1.92
2019-06-07T14:36:25.234Z,1.52
2019-06-07T14:38:55.485Z,1.70
2019-06-07T14:41:27.062Z,1.98
2019-06-07T14:43:57.646Z,1.55
2019-06-07T14:46:28.204Z,1.47
2019-06-07T14:48:58.440Z,1.35
2019-06-07T14:51:28.533Z,1.52
2019-06-07T14:53:58.479Z,1.50
2019-06-07T14:56:29.543Z,1.85
2019-06-07T14:58:59.853Z,2.15
2019-06-07T15:01:30.734Z,1.40
2019-06-07T15:04:01.266Z,1.52
2019-06-07T15:06:32.680Z,1.30
2019-06-07T15:09:02.886Z,1.67
2019-06-07T15:11:33.263Z,1.70
2019-06-07T15:14:04.160Z,1.47
2019-06-07T15:16:35.807Z,1.50
2019-06-07T15:19:06.325Z,1.80
2019-06-07T15:21:36.594Z,1.40
2019-06-07T15:24:07.018Z,1.45
2019-06-07T15:26:38.641Z,1.70
2019-06-07T15:29:09.119Z,1.50
2019-06-07T15:31:40.609Z,1.40
2019-06-07T15:34:10.843Z,1.60
2019-06-07T15:36:41.218Z,1.40
2019-06-07T15:39:11.520Z,1.60
2019-06-07T15:41:43.088Z,1.52
2019-06-07T15:44:18.792Z,1.45
2019-06-07T15:46:49.093Z,1.25
2019-06-07T15:49:19.416Z,1.50
2019-06-07T15:51:49.832Z,1.40
2019-06-07T15:54:20.186Z,1.57
2019-06-07T15:56:50.569Z,1.70
2019-06-07T15:59:20.862Z,1.50
2019-06-07T16:01:51.481Z,1.50
2019-06-07T16:04:21.850Z,1.30
2019-06-07T16:06:52.206Z,1.32
2019-06-07T16:09:22.475Z,1.77
2019-06-07T16:11:54.874Z,1.50
2019-06-07T16:14:25.227Z,1.30
2019-06-07T16:16:55.648Z,1.40
2019-06-07T16:19:25.956Z,1.42
2019-06-07T16:21:56.265Z,1.40
2019-06-07T16:24:26.616Z,1.40
2019-06-07T16:26:57.064Z,1.47
2019-06-07T16:29:27.373Z,1.50
2019-06-07T16:31:57.893Z,1.55
2019-06-07T16:34:28.197Z,1.30
2019-06-07T16:36:58.554Z,1.30
2019-06-07T16:39:28.883Z,1.85
2019-06-07T16:42:00.474Z,1.80
2019-06-07T16:44:31.287Z,1.70
2019-06-07T16:47:01.815Z,1.72
2019-06-07T16:49:32.257Z,2.20
2019-06-07T16:52:02.714Z,2.72
2019-06-07T16:54:35.655Z,2.30
2019-06-07T16:57:06.109Z,1.93
2019-06-07T16:59:36.786Z,2.40
2019-06-07T17:02:07.260Z,2.10
2019-06-07T17:04:37.553Z,2.12
2019-06-07T17:07:08.917Z,2.50
2019-06-07T17:09:40.074Z,2.50
2019-06-07T17:12:10.681Z,2.50
2019-06-07T17:14:41.027Z,2.80
2019-06-07T17:17:12.405Z,2.67
2019-06-07T17:19:43.342Z,2.80
2019-06-07T17:22:17.819Z,2.80
2019-06-07T17:24:47.992Z,2.55
2019-06-07T17:27:18.227Z,2.77
2019-06-07T17:29:49.956Z,3.05
2019-06-07T17:32:20.357Z,2.70
2019-06-07T17:34:50.475Z,2.17
2019-06-07T17:37:20.684Z,2.33
2019-06-07T17:39:50.978Z,1.70
2019-06-07T17:42:21.094Z,1.73
2019-06-07T17:44:51.563Z,1.87
2019-06-07T17:47:21.709Z,1.50
2019-06-07T17:49:52.299Z,1.17
2019-06-07T17:52:22.542Z,1.10
2019-06-07T17:54:52.615Z,0.90
2019-06-07T17:57:22.899Z,1.05
2019-06-07T17:59:53.062Z,1.20
2019-06-07T18:02:23.619Z,0.90
2019-06-07T18:04:54.334Z,0.90
2019-06-07T18:07:26.475Z,1.00
2019-06-07T18:09:57.091Z,1.00
2019-06-07T18:12:27.205Z,0.90
2019-06-07T18:14:57.303Z,0.90
2019-06-07T18:17:34.469Z,0.80
2019-06-07T18:20:01.609Z,1.10
2019-06-07T18:22:31.915Z,0.93
2019-06-07T18:25:02.147Z,0.83
2019-06-07T18:27:32.461Z,1.00
2019-06-07T18:30:11.195Z,1.20
2019-06-07T18:32:34.669Z,0.90
2019-06-07T18:35:05.493Z,1.33
2019-06-07T18:37:35.561Z,0.97
2019-06-07T18:40:06.426Z,0.83
2019-06-07T18:42:36.676Z,0.87
2019-06-07T18:45:07.057Z,1.00
2019-06-07T18:47:37.368Z,0.90
2019-06-07T18:50:08.289Z,1.00
2019-06-07T18:52:40.278Z,0.80
2019-06-07T18:55:10.687Z,1.03
2019-06-07T18:57:40.811Z,0.60
2019-06-07T19:00:12.023Z,0.97
2019-06-07T19:02:42.251Z,0.70
2019-06-07T19:05:15.005Z,0.73
2019-06-07T19:07:45.147Z,0.70
2019-06-07T19:10:18.165Z,0.70
2019-06-07T19:12:48.938Z,0.67
2019-06-07T19:15:22.676Z,0.80
2019-06-07T19:17:53.918Z,0.53
2019-06-07T19:20:26.380Z,0.60
2019-06-07T19:22:56.629Z,0.83
2019-06-07T19:25:26.744Z,0.73
2019-06-07T19:27:57.121Z,0.70
2019-06-07T19:30:27.363Z,0.80
2019-06-07T19:32:59.688Z,0.87
2019-06-07T19:35:30.057Z,0.60
2019-06-07T19:38:00.409Z,0.70
2019-06-07T19:40:30.717Z,0.80
2019-06-07T19:43:03.682Z,0.80
2019-06-07T19:45:32.891Z,0.70
2019-06-07T19:48:03.191Z,0.80
2019-06-07T19:50:33.479Z,0.80
2019-06-07T19:53:04.076Z,0.77
2019-06-07T19:55:34.526Z,0.80
2019-06-07T19:58:04.759Z,0.60
2019-06-07T20:00:34.969Z,0.80
2019-06-07T20:03:05.167Z,0.60
2019-06-07T20:05:35.366Z,0.77
2019-06-07T20:08:05.816Z,0.60
2019-06-07T20:10:36.011Z,0.80
2019-06-07T20:13:06.294Z,0.80
2019-06-07T20:15:36.485Z,0.70
2019-06-07T20:18:07.733Z,0.70
2019-06-07T20:20:37.993Z,0.77
2019-06-07T20:23:09.329Z,0.63
2019-06-07T20:25:39.541Z,0.90
2019-06-07T20:28:09.743Z,0.67
2019-06-07T20:30:39.952Z,0.77
2019-06-07T20:33:10.120Z,0.80
2019-06-07T20:35:40.334Z,0.90
2019-06-07T20:38:10.495Z,0.80
2019-06-07T20:40:40.589Z,0.70
2019-06-07T20:43:10.678Z,0.70
2019-06-07T20:45:40.949Z,0.70
2019-06-07T20:48:11.043Z,0.80
2019-06-07T20:50:41.206Z,0.77
2019-06-07T20:53:11.354Z,0.50
2019-06-07T20:55:41.520Z,0.57
2019-06-07T20:58:11.627Z,0.90
2019-06-07T21:00:41.831Z,0.70
2019-06-07T21:03:12.014Z,0.70
2019-06-07T21:05:42.403Z,0.70
2019-06-07T21:08:13.209Z,0.57
2019-06-07T21:10:44.604Z,0.60
2019-06-07T21:13:14.747Z,0.70
2019-06-07T21:15:48.672Z,0.83
2019-06-07T21:18:19.737Z,0.70
2019-06-07T21:20:48.406Z,0.63
2019-06-07T21:23:18.510Z,0.70
2019-06-07T21:25:48.593Z,0.63
2019-06-07T21:28:18.836Z,0.73
2019-06-07T21:30:48.996Z,0.80
2019-06-07T21:33:19.303Z,0.63
2019-06-07T21:35:49.428Z,0.50
2019-06-07T21:38:19.561Z,0.43
2019-06-07T21:40:49.732Z,0.50
2019-06-07T21:43:19.787Z,0.63
2019-06-07T21:46:04.387Z,0.50
2019-06-07T21:48:21.650Z,0.67
2019-06-07T21:50:51.654Z,0.70
2019-06-07T21:53:21.770Z,0.97
2019-06-07T21:55:51.911Z,0.73
2019-06-07T21:58:22.215Z,0.53
2019-06-07T22:01:30.369Z,0.60
2019-06-07T22:04:00.512Z,0.90
2019-06-07T22:06:32.612Z,0.50
2019-06-07T22:09:03.885Z,0.87
2019-06-07T22:11:34.264Z,0.70
2019-06-07T22:14:06.602Z,0.90
2019-06-07T22:16:37.003Z,0.50
2019-06-07T22:19:10.807Z,0.63
2019-06-07T22:21:41.063Z,0.53
2019-06-07T22:24:11.303Z,0.93
2019-06-07T22:26:41.564Z,0.70
2019-06-07T22:29:12.371Z,0.63
2019-06-07T22:31:42.683Z,0.93
2019-06-07T22:34:13.351Z,0.70
2019-06-07T22:36:43.474Z,0.90
2019-06-07T22:39:14.011Z,0.70
2019-06-07T22:41:44.330Z,0.80
2019-06-07T22:44:14.956Z,0.70
2019-06-07T22:46:45.384Z,0.80
2019-06-07T22:49:15.852Z,0.63
2019-06-07T22:51:46.023Z,0.65
2019-06-07T22:54:16.307Z,0.67
2019-06-07T22:56:57.137Z,0.80
2019-06-07T22:59:27.395Z,0.80
2019-06-07T23:01:57.837Z,1.07
2019-06-07T23:04:28.168Z,0.70
2019-06-07T23:06:58.423Z,0.70
2019-06-07T23:09:28.772Z,0.70
2019-06-07T23:11:59.340Z,0.60
2019-06-07T23:14:29.759Z,1.00
2019-06-07T23:17:03.436Z,1.00
2019-06-07T23:19:33.891Z,0.77
2019-06-07T23:22:04.543Z,0.80
2019-06-07T23:24:34.871Z,0.60
2019-06-07T23:27:06.476Z,0.60
2019-06-07T23:29:37.056Z,0.63
2019-06-07T23:32:07.382Z,0.50
2019-06-07T23:34:37.720Z,0.90
2019-06-07T23:37:08.048Z,0.60
2019-06-07T23:39:38.334Z,0.70
2019-06-07T23:42:08.644Z,0.70
2019-06-07T23:44:38.941Z,0.60
2019-06-07T23:47:12.077Z,0.50
2019-06-07T23:49:41.254Z,0.90
2019-06-07T23:52:11.989Z,0.50
2019-06-07T23:54:42.502Z,0.57
2019-06-07T23:57:14.017Z,0.53
2019-06-07T23:59:44.487Z,0.47
